Pagina principale
METAR-TAF:

METAR-TAF

Aeroporti :

Le Luc, Francia

latitudine: 43-23N, longitudine: 006-23E, altezza: 80 m

Osservazione

Il bollettino è stato emesso 38 minuti fa, alle 18:00 UTC
Vento 7 kt da ovest, variando fra sud-ovest e nord-ovest
Temperature 15°C
Umidità 77%
Pressione 1005 hPa
Visibilità 10 km o più
Poco nuvoloso ad un'altezza di 2100 ft
Cielo coperto ad un'altezza di 5200 ft

METAR: LFMC 191800Z AUTO 28007KT 230V310 9999 FEW021 OVC052 15/11 Q1005

Ora: 20:38 (18:38 UTC)


TAF: mancante

Osservazioni e previsioni meteorologiche di più di 4000 aeroporti (messaggi METAR e TAF).

Le stazioni disponibili sono rappresentate dai dischi gialli e rossi sulla carta.

Puntare il mouse per vedere il nome della stazione.

Clicca sopra per visualizzare le osservazioni e previsioni meteorologiche.

Per cambiare la mappa : fare clic sui pulsanti verdi con una croce nera per ingrandire, il pulsante verde con un trattino per diminuire, o sulla freccia verde per le mappe adiacenti.


METAR-TAF: